Time;durP1;ratioP1;P1;durP2;ratioP2;P2;SDS_P1;SDS_P2;PMS_P1;PMS_P2;Temp;Humidity;BMP_temperature;BMP_pressure;BME280_temperature;BME280_humidity;BME280_pressure;Samples;Min_cycle;Max_cycle;Signal;HPM_P1;HPM_P2
2021/07/28 00:02:04;;;;;;;9.82;7.28;;;26.70;64.30;;;;;;5055939;28;20021;-86
2021/07/28 00:04:40;;;;;;;9.68;7.30;;;26.60;64.70;;;;;;5055835;28;20078;-85
2021/07/28 00:07:08;;;;;;;9.75;7.85;;;26.60;64.30;;;;;;5054553;28;20033;-85
2021/07/28 00:09:34;;;;;;;9.80;6.40;;;26.60;64.30;;;;;;5055781;28;20104;-85
2021/07/28 00:11:59;;;;;;;8.73;6.97;;;26.50;65.00;;;;;;5055688;28;20563;-85
2021/07/28 00:14:25;;;;;;;9.98;6.35;;;26.50;65.30;;;;;;5055680;28;20033;-85
2021/07/28 00:16:51;;;;;;;8.38;6.03;;;26.50;65.60;;;;;;5054468;28;20033;-85
2021/07/28 00:24:31;;;;;;;7.60;5.50;;;26.30;66.30;;;;;;5055561;28;20039;-85
2021/07/28 00:26:57;;;;;;;;;;;26.30;66.60;;;;;;5054603;28;20064;-85
2021/07/28 00:29:23;;;;;;;7.43;4.90;;;26.20;67.00;;;;;;5054125;28;19904;-85
2021/07/28 00:31:49;;;;;;;7.88;5.28;;;26.20;67.00;;;;;;5054084;28;20032;-85
2021/07/28 00:34:14;;;;;;;8.35;5.30;;;26.20;67.40;;;;;;5055307;28;20056;-85
2021/07/28 00:36:40;;;;;;;6.60;5.47;;;26.20;67.70;;;;;;5054043;28;20032;-85
2021/07/28 00:39:06;;;;;;;8.35;5.22;;;26.10;67.90;;;;;;5055127;28;20028;-85
2021/07/28 00:41:31;;;;;;;7.65;5.55;;;26.10;68.70;;;;;;5055236;28;20445;-85
2021/07/28 00:43:57;;;;;;;7.03;5.43;;;26.10;68.40;;;;;;5053998;28;20017;-85
2021/07/28 00:46:23;;;;;;;8.20;5.68;;;26.10;68.70;;;;;;5053802;28;20025;-85
2021/07/28 00:48:48;;;;;;;5.60;5.05;;;26.00;68.70;;;;;;5067664;28;20051;-85
2021/07/28 00:51:14;;;;;;;8.15;5.50;;;26.00;69.00;;;;;;5073677;28;20054;-85
2021/07/28 00:53:40;;;;;;;6.60;5.28;;;26.00;69.20;;;;;;5074916;28;20078;-85
2021/07/28 00:56:07;;;;;;;9.20;5.28;;;26.00;69.30;;;;;;5075147;28;20034;-85
2021/07/28 00:58:33;;;;;;;6.78;5.35;;;25.90;69.50;;;;;;5075000;28;20032;-85
2021/07/28 01:01:00;;;;;;;8.52;5.40;;;25.90;69.80;;;;;;5073465;28;20066;-85
2021/07/28 01:03:26;;;;;;;8.18;5.57;;;25.90;70.00;;;;;;5074633;28;20020;-84
2021/07/28 01:05:55;;;;;;;6.22;5.63;;;25.90;70.20;;;;;;5073986;28;20115;-85
2021/07/28 01:08:21;;;;;;;6.63;5.57;;;25.80;70.20;;;;;;5073421;28;20543;-85
2021/07/28 01:10:46;;;;;;;8.50;5.63;;;25.80;70.40;;;;;;5074544;28;20033;-86
2021/07/28 01:13:14;;;;;;;7.28;5.38;;;25.70;70.40;;;;;;5058476;28;20119;-85
2021/07/28 01:15:42;;;;;;;9.15;5.75;;;25.70;70.70;;;;;;5053066;28;20449;-85
2021/07/28 01:18:09;;;;;;;6.43;5.78;;;25.70;71.10;;;;;;5053131;28;20031;-85
2021/07/28 01:20:43;;;;;;;9.10;5.70;;;25.70;71.40;;;;;;5052910;28;20127;-85
2021/07/28 01:23:22;;;;;;;8.27;5.90;;;25.60;71.50;;;;;;5054670;28;20467;-85
2021/07/28 01:25:50;;;;;;;7.77;6.23;;;25.60;71.60;;;;;;5054314;28;20104;-85
2021/07/28 01:28:16;;;;;;;7.20;6.10;;;25.60;71.50;;;;;;5054081;28;20254;-85
2021/07/28 01:30:43;;;;;;;8.82;6.20;;;25.50;71.50;;;;;;5054237;28;20079;-85
2021/07/28 01:33:09;;;;;;;9.73;6.30;;;25.50;71.40;;;;;;5054130;28;20017;-85
2021/07/28 01:35:36;;;;;;;12.30;6.40;;;25.50;71.70;;;;;;5053972;28;20047;-85
2021/07/28 01:38:03;;;;;;;10.60;6.15;;;25.50;71.80;;;;;;5052777;28;20489;-85
2021/07/28 01:40:29;;;;;;;8.75;6.78;;;25.50;72.20;;;;;;5069054;28;20029;-85
2021/07/28 01:42:54;;;;;;;8.98;6.28;;;25.40;72.10;;;;;;5052777;28;20540;-85
2021/07/28 01:45:20;;;;;;;9.45;6.90;;;25.50;72.30;;;;;;5052702;28;20463;-85
2021/07/28 01:47:46;;;;;;;8.88;6.53;;;25.50;72.50;;;;;;5052851;28;20487;-85
2021/07/28 01:50:12;;;;;;;11.65;6.68;;;25.50;72.40;;;;;;5054205;28;20361;-85
2021/07/28 01:52:40;;;;;;;9.85;6.90;;;25.50;72.30;;;;;;5052633;28;20528;-86
2021/07/28 01:55:09;;;;;;;9.95;7.03;;;25.50;72.20;;;;;;5053895;28;20029;-85
2021/07/28 01:57:35;;;;;;;10.70;6.43;;;25.60;72.00;;;;;;5054156;28;20021;-85
2021/07/28 02:00:01;;;;;;;10.18;6.60;;;25.60;72.10;;;;;;5052437;28;20043;-85
2021/07/28 02:02:35;;;;;;;12.52;7.18;;;25.60;72.20;;;;;;5054066;28;20426;-86
2021/07/28 02:05:05;;;;;;;8.07;6.53;;;25.60;72.00;;;;;;5052458;28;20106;-85
2021/07/28 02:07:31;;;;;;;9.18;6.03;;;25.60;72.10;;;;;;5052371;28;20043;-86
2021/07/28 02:09:56;;;;;;;9.45;6.47;;;25.60;72.10;;;;;;5052384;28;20471;-85
2021/07/28 02:12:23;;;;;;;7.88;6.75;;;25.60;71.80;;;;;;5052568;28;20025;-87
2021/07/28 02:14:48;;;;;;;10.18;6.63;;;25.70;71.70;;;;;;5052718;28;20025;-88
2021/07/28 02:17:15;;;;;;;8.98;6.90;;;25.70;71.70;;;;;;5071277;28;20029;-87
2021/07/28 02:19:41;;;;;;;9.13;7.25;;;25.60;71.30;;;;;;5071804;28;20052;-87
2021/07/28 02:22:07;;;;;;;11.73;7.32;;;25.70;71.30;;;;;;5073194;28;20039;-87
2021/07/28 02:24:33;;;;;;;12.20;7.30;;;25.60;71.40;;;;;;5073929;28;20017;-88
2021/07/28 02:26:59;;;;;;;8.68;7.50;;;25.60;71.20;;;;;;5074103;28;20455;-88
2021/07/28 02:29:24;;;;;;;11.32;7.82;;;25.60;71.40;;;;;;5072771;28;20033;-88
2021/07/28 02:31:50;;;;;;;12.60;7.25;;;25.60;71.40;;;;;;5072672;28;20067;-86
2021/07/28 02:34:16;;;;;;;14.05;7.70;;;25.60;71.30;;;;;;5072592;28;20029;-88
2021/07/28 02:36:41;;;;;;;12.10;7.75;;;25.60;71.50;;;;;;5073470;28;20025;-88
2021/07/28 02:39:07;;;;;;;13.00;7.88;;;25.60;71.50;;;;;;5074013;28;20581;-87
2021/07/28 02:41:33;;;;;;;9.82;7.85;;;25.70;71.40;;;;;;5074912;28;20528;-87
2021/07/28 02:43:58;;;;;;;13.93;8.60;;;25.60;71.80;;;;;;5077638;28;20017;-88
2021/07/28 02:46:24;;;;;;;14.55;8.68;;;25.60;72.20;;;;;;5076424;28;20060;-88
2021/07/28 02:48:49;;;;;;;9.98;8.75;;;25.60;72.10;;;;;;5077638;28;20036;-88
2021/07/28 02:51:15;;;;;;;10.60;8.60;;;25.50;72.10;;;;;;5065067;28;20027;-88
2021/07/28 02:53:41;;;;;;;10.35;7.95;;;25.50;72.30;;;;;;5057597;28;20020;-88
2021/07/28 02:56:06;;;;;;;9.98;8.07;;;25.50;72.50;;;;;;5056124;28;20536;-88
2021/07/28 02:58:32;;;;;;;14.55;8.65;;;25.50;72.50;;;;;;5057195;28;20033;-88
2021/07/28 03:00:58;;;;;;;11.60;7.85;;;25.50;72.50;;;;;;5064341;28;20386;-88
2021/07/28 03:03:24;;;;;;;14.43;8.02;;;25.50;72.70;;;;;;5076320;28;20082;-88
2021/07/28 03:05:50;;;;;;;12.65;8.00;;;25.50;72.70;;;;;;5071688;28;20537;-88
2021/07/28 03:08:17;;;;;;;8.80;7.80;;;25.50;72.90;;;;;;5055657;28;20029;-87
2021/07/28 03:10:43;;;;;;;10.32;7.95;;;25.50;73.00;;;;;;5039570;28;20025;-88
2021/07/28 03:13:09;;;;;;;10.93;7.82;;;25.50;73.10;;;;;;5055778;28;20115;-87
2021/07/28 03:15:34;;;;;;;11.23;7.80;;;25.50;73.10;;;;;;5055739;28;20029;-87
2021/07/28 03:18:01;;;;;;;13.38;7.78;;;25.60;73.10;;;;;;5057360;28;20033;-88
2021/07/28 03:20:26;;;;;;;9.73;8.13;;;25.50;73.00;;;;;;5055315;28;20080;-88
2021/07/28 03:22:52;;;;;;;11.32;8.55;;;25.60;73.20;;;;;;5073858;28;20071;-87
2021/07/28 03:25:18;;;;;;;10.90;8.27;;;25.60;73.30;;;;;;5075639;28;20028;-88
2021/07/28 03:27:45;;;;;;;13.18;8.70;;;25.60;73.40;;;;;;5075280;28;20036;-87
2021/07/28 03:30:11;;;;;;;12.23;7.63;;;25.60;73.30;;;;;;5075248;28;20078;-87
2021/07/28 03:32:37;;;;;;;9.65;7.70;;;25.60;73.40;;;;;;5076593;28;20493;-84
2021/07/28 03:35:03;;;;;;;9.52;8.52;;;25.60;73.40;;;;;;5075345;28;20021;-88
2021/07/28 18:06:42;;;;;;;15.07;9.85;;;27.20;99.90;;;;;;5111967;27;21189;-87
2021/07/28 18:09:08;;;;;;;34.50;15.13;;;26.90;99.90;;;;;;5110570;28;20028;-89
2021/07/28 18:11:33;;;;;;;19.55;17.55;;;26.80;99.90;;;;;;5111737;28;20531;-88
2021/07/28 18:13:59;;;;;;;19.85;16.83;;;26.80;99.90;;;;;;5111764;28;20466;-88
2021/07/28 18:16:24;;;;;;;27.45;22.70;;;26.90;99.90;;;;;;5093275;28;20488;-88
2021/07/28 18:18:50;;;;;;;18.67;16.67;;;26.80;99.90;;;;;;5093519;28;20496;-88
2021/07/28 18:21:18;;;;;;;17.23;15.27;;;26.90;99.90;;;;;;5093501;28;20111;-88
2021/07/28 18:23:43;;;;;;;17.33;13.90;;;26.90;99.90;;;;;;5073078;28;20058;-88
2021/07/28 18:26:09;;;;;;;18.80;14.70;;;26.90;99.90;;;;;;5073094;28;20028;-88
2021/07/28 18:28:35;;;;;;;17.05;13.05;;;26.90;99.90;;;;;;5091055;28;20020;-89
2021/07/28 18:31:01;;;;;;;17.52;13.40;;;26.90;99.90;;;;;;5073124;28;20030;-88
2021/07/28 18:33:26;;;;;;;16.02;14.43;;;26.90;99.90;;;;;;5090937;28;20472;-88
2021/07/28 18:35:52;;;;;;;17.40;14.90;;;26.90;99.90;;;;;;5090904;28;20189;-88
2021/07/28 18:38:18;;;;;;;17.10;15.05;;;26.90;99.90;;;;;;5072793;28;20501;-88
2021/07/28 18:40:46;;;;;;;21.25;15.13;;;26.90;99.90;;;;;;5090724;28;20032;-88
2021/07/28 18:43:12;;;;;;;17.40;14.85;;;26.90;99.90;;;;;;5096210;28;20098;-88
2021/07/28 18:45:38;;;;;;;19.65;16.00;;;26.90;99.90;;;;;;5097689;28;20127;-88
2021/07/28 18:48:03;;;;;;;21.00;15.85;;;26.90;99.90;;;;;;5110182;28;20047;-88
2021/07/28 18:50:29;;;;;;;18.63;15.70;;;26.90;99.90;;;;;;5110969;28;20030;-88
2021/07/28 18:52:55;;;;;;;25.98;16.38;;;26.90;99.90;;;;;;5112112;28;20058;-88
2021/07/28 18:55:20;;;;;;;19.08;15.20;;;26.90;99.90;;;;;;5110049;28;20024;-88
2021/07/28 18:57:46;;;;;;;17.88;15.48;;;26.90;99.90;;;;;;5111544;28;20059;-88
2021/07/28 19:00:12;;;;;;;18.85;15.68;;;26.90;99.90;;;;;;5109831;28;20028;-88
2021/07/28 19:02:38;;;;;;;16.85;14.73;;;26.90;99.90;;;;;;5109750;28;20107;-89
2021/07/28 19:05:04;;;;;;;19.55;14.38;;;26.90;99.90;;;;;;5092364;28;20138;-86
2021/07/28 19:07:30;;;;;;;16.20;14.48;;;26.80;99.90;;;;;;5111250;28;20031;-88
2021/07/28 19:09:57;;;;;;;18.20;15.32;;;26.80;99.90;;;;;;5072510;28;20024;-89
2021/07/28 19:12:23;;;;;;;19.33;15.50;;;26.80;99.90;;;;;;5090485;28;20043;-88
2021/07/28 19:14:48;;;;;;;15.88;14.15;;;26.80;99.90;;;;;;5090357;28;20024;-89
2021/07/28 19:17:14;;;;;;;25.90;18.88;;;26.80;99.90;;;;;;5061874;28;20039;-89
2021/07/28 19:19:40;;;;;;;23.35;17.88;;;26.80;99.90;;;;;;5058846;28;20029;-88
2021/07/28 19:22:06;;;;;;;21.35;17.63;;;26.80;99.90;;;;;;5095061;28;20028;-89
2021/07/28 19:24:32;;;;;;;18.77;14.65;;;26.80;99.90;;;;;;5060021;28;20021;-89
2021/07/28 19:26:58;;;;;;;17.17;15.40;;;26.80;99.90;;;;;;5076504;28;20036;-88
2021/07/28 19:29:23;;;;;;;20.60;15.07;;;26.80;99.90;;;;;;5076716;28;20021;-89
2021/07/28 19:31:49;;;;;;;19.08;14.73;;;26.80;99.90;;;;;;5058941;28;20035;-87
2021/07/28 19:34:15;;;;;;;19.02;15.23;;;26.80;99.90;;;;;;5065455;28;20020;-87
2021/07/28 19:36:41;;;;;;;17.38;14.27;;;26.80;99.90;;;;;;5096574;28;20056;-87
2021/07/28 19:39:07;;;;;;;15.35;13.85;;;26.80;99.90;;;;;;5096351;28;20418;-87
2021/07/28 19:41:34;;;;;;;17.40;13.85;;;26.70;99.90;;;;;;5062071;28;20025;-87
2021/07/28 19:44:00;;;;;;;16.23;13.88;;;26.70;99.90;;;;;;5075909;28;20466;-87
2021/07/28 19:46:26;;;;;;;15.20;13.60;;;26.70;99.90;;;;;;5076010;28;20025;-87
2021/07/28 19:48:51;;;;;;;15.05;13.20;;;26.70;99.90;;;;;;5057956;28;20027;-87
2021/07/28 19:51:17;;;;;;;22.38;14.48;;;26.60;99.90;;;;;;5075946;28;20028;-87
2021/07/28 19:53:43;;;;;;;17.48;13.73;;;26.60;99.90;;;;;;5057972;28;20025;-87
2021/07/28 19:56:11;;;;;;;17.35;13.70;;;26.60;99.90;;;;;;5057824;28;20029;-87
2021/07/28 19:58:37;;;;;;;16.00;13.80;;;26.60;99.90;;;;;;5057727;28;20025;-87
2021/07/28 20:01:03;;;;;;;15.50;13.40;;;26.60;99.90;;;;;;5075732;28;20431;-87
2021/07/28 20:03:29;;;;;;;16.17;13.43;;;26.60;99.90;;;;;;5057804;28;20048;-87
2021/07/28 20:05:54;;;;;;;16.20;13.35;;;26.50;99.90;;;;;;5075407;28;20095;-87
2021/07/28 20:08:20;;;;;;;18.20;14.10;;;26.50;99.90;;;;;;5075538;28;20029;-87
2021/07/28 20:10:47;;;;;;;15.15;13.65;;;26.40;99.90;;;;;;5075663;28;20078;-87
2021/07/28 20:13:15;;;;;;;17.92;13.60;;;26.40;99.90;;;;;;5057521;28;20020;-86
2021/07/28 20:15:40;;;;;;;15.82;13.80;;;26.40;99.90;;;;;;5075358;28;20536;-85
2021/07/28 20:18:06;;;;;;;16.70;14.43;;;26.40;99.90;;;;;;5075579;28;20028;-84
2021/07/28 20:20:32;;;;;;;18.20;15.02;;;26.40;99.90;;;;;;5063182;28;20036;-84
2021/07/28 20:22:58;;;;;;;17.50;15.52;;;26.30;99.90;;;;;;5095397;28;20024;-85
2021/07/28 20:25:29;;;;;;;18.38;15.60;;;26.30;99.90;;;;;;5075120;28;20032;-85
2021/07/28 20:27:58;;;;;;;19.90;16.00;;;26.30;99.90;;;;;;5083537;28;20071;-85
2021/07/28 20:30:26;;;;;;;17.30;15.40;;;26.20;99.90;;;;;;5071293;28;20031;-85
2021/07/28 20:32:54;;;;;;;18.63;15.52;;;26.20;99.90;;;;;;5074058;28;20024;-85
2021/07/28 20:35:23;;;;;;;17.27;15.55;;;26.20;99.90;;;;;;5090593;28;20024;-85
2021/07/28 20:37:49;;;;;;;17.67;16.00;;;26.10;99.90;;;;;;5076777;28;20052;-85
2021/07/28 20:40:15;;;;;;;16.77;14.95;;;26.10;99.90;;;;;;5076752;28;20072;-85
2021/07/28 20:42:40;;;;;;;23.85;15.27;;;26.10;99.90;;;;;;5076690;28;20031;-84
2021/07/28 20:45:11;;;;;;;17.20;15.40;;;26.10;99.90;;;;;;5076540;28;20027;-84
2021/07/28 20:47:37;;;;;;;17.60;15.80;;;26.10;99.90;;;;;;5094669;28;20478;-84
2021/07/28 20:50:05;;;;;;;18.25;15.10;;;26.10;99.90;;;;;;5076538;28;20020;-85
2021/07/28 20:52:33;;;;;;;16.33;14.70;;;26.00;99.90;;;;;;5095110;28;20046;-85
2021/07/28 20:55:01;;;;;;;19.65;15.13;;;26.00;99.90;;;;;;5094737;28;20510;-85
2021/07/28 20:57:26;;;;;;;18.45;15.20;;;26.00;99.90;;;;;;5073203;28;20067;-85
2021/07/28 20:59:52;;;;;;;22.77;15.13;;;25.90;99.90;;;;;;5056575;28;20063;-84
2021/07/28 21:02:19;;;;;;;16.67;15.02;;;25.90;99.90;;;;;;5074366;28;20021;-84
2021/07/28 21:04:44;;;;;;;18.08;16.17;;;25.80;99.90;;;;;;5082766;28;20075;-85
2021/07/28 21:07:10;;;;;;;20.92;16.42;;;25.80;99.90;;;;;;5094234;28;20466;-85
2021/07/28 21:09:36;;;;;;;19.85;15.43;;;25.80;99.90;;;;;;5087465;28;20024;-85
2021/07/28 21:12:02;;;;;;;16.70;15.00;;;25.80;99.90;;;;;;5074206;28;20029;-85
2021/07/28 21:14:28;;;;;;;17.30;15.57;;;25.80;99.90;;;;;;5056276;28;20047;-85
2021/07/28 21:16:54;;;;;;;18.77;15.90;;;25.80;99.90;;;;;;5072875;28;20031;-85
2021/07/28 21:19:20;;;;;;;17.60;15.70;;;25.70;99.90;;;;;;5074015;28;20482;-85
2021/07/28 21:21:46;;;;;;;19.70;16.48;;;25.70;99.90;;;;;;5074041;28;20063;-85
2021/07/28 21:24:12;;;;;;;19.35;17.00;;;25.70;99.90;;;;;;5074262;28;20084;-84
2021/07/28 21:26:38;;;;;;;18.83;16.83;;;25.70;99.90;;;;;;5076826;28;20021;-85
2021/07/28 21:29:05;;;;;;;19.02;17.02;;;25.70;99.90;;;;;;5074035;28;20017;-85
2021/07/28 21:31:36;;;;;;;21.67;16.95;;;25.60;99.90;;;;;;5078118;28;20458;-85
2021/07/28 21:34:03;;;;;;;17.48;15.68;;;25.60;99.90;;;;;;5094087;28;20390;-85
2021/07/28 21:36:30;;;;;;;17.15;15.38;;;25.60;99.90;;;;;;5093673;28;20020;-84
2021/07/28 21:38:55;;;;;;;18.65;16.45;;;25.60;99.90;;;;;;5075659;28;20053;-85
2021/07/28 21:41:21;;;;;;;21.63;17.10;;;25.60;99.90;;;;;;5075889;28;20111;-85
2021/07/28 21:43:48;;;;;;;18.23;16.33;;;25.60;99.90;;;;;;5080717;28;20105;-84
2021/07/28 21:46:14;;;;;;;18.23;16.20;;;25.60;99.90;;;;;;5055723;28;20605;-85
2021/07/28 21:48:41;;;;;;;17.90;15.98;;;25.50;99.90;;;;;;5063948;28;20077;-85
2021/07/28 21:51:35;;;;;;;19.90;16.67;;;25.50;99.90;;;;;;5093956;28;20016;-85
2021/07/28 21:54:03;;;;;;;20.00;16.17;;;25.50;99.90;;;;;;5062133;28;20036;-85
2021/07/28 21:56:44;;;;;;;19.65;17.05;;;25.50;99.90;;;;;;5073643;28;20025;-85
2021/07/28 21:59:27;;;;;;;19.80;17.10;;;25.40;99.90;;;;;;5061251;28;20027;-85
2021/07/28 22:01:54;;;;;;;18.45;16.55;;;25.40;99.90;;;;;;5076036;28;20035;-85
2021/07/28 22:04:20;;;;;;;18.15;16.33;;;25.40;99.90;;;;;;5072968;28;20502;-84
2021/07/28 22:06:48;;;;;;;18.15;16.25;;;25.40;99.90;;;;;;5091190;28;20020;-85
2021/07/28 22:09:14;;;;;;;20.80;16.98;;;25.40;99.90;;;;;;5075540;28;20028;-85
2021/07/28 22:11:41;;;;;;;20.27;17.58;;;25.40;99.90;;;;;;5069246;28;20034;-85
2021/07/28 22:14:06;;;;;;;20.60;17.77;;;25.30;99.90;;;;;;5075705;28;20028;-85
2021/07/28 22:16:32;;;;;;;22.45;17.27;;;25.30;99.90;;;;;;5065106;28;20379;-85
2021/07/28 22:19:00;;;;;;;19.38;16.88;;;25.30;99.90;;;;;;5072094;28;20025;-85
2021/07/28 22:21:26;;;;;;;20.63;17.30;;;25.30;99.90;;;;;;5055457;28;20051;-85
2021/07/28 22:23:58;;;;;;;19.15;17.15;;;25.30;99.90;;;;;;5055456;28;20025;-85
2021/07/28 22:26:26;;;;;;;18.67;16.77;;;25.30;99.90;;;;;;5072326;28;20111;-84
2021/07/28 22:28:52;;;;;;;19.55;17.17;;;25.30;99.90;;;;;;5075394;28;20024;-84
2021/07/28 22:31:19;;;;;;;19.98;17.73;;;25.20;99.90;;;;;;5093487;28;20067;-85
2021/07/28 22:33:46;;;;;;;20.05;17.98;;;25.20;99.90;;;;;;5075351;28;20024;-85
2021/07/28 22:36:12;;;;;;;21.92;17.48;;;25.20;99.90;;;;;;5075346;28;20152;-85
2021/07/28 22:38:38;;;;;;;21.65;18.10;;;25.20;99.90;;;;;;5075319;28;20036;-84
2021/07/28 22:41:04;;;;;;;21.73;18.42;;;25.20;99.90;;;;;;5093417;28;20463;-85
2021/07/28 22:43:30;;;;;;;22.35;18.27;;;25.20;99.90;;;;;;5075241;28;20032;-85
2021/07/28 22:45:56;;;;;;;21.60;18.60;;;25.20;99.90;;;;;;5075200;28;20107;-85
2021/07/28 22:53:38;;;;;;;20.90;18.65;;;25.20;99.90;;;;;;5075298;28;20044;-85
2021/07/28 22:53:51;;;;;;;22.75;18.92;;;25.10;99.90;;;;;;5097195;28;20023;-85
2021/07/28 22:56:27;;;;;;;23.17;18.88;;;25.10;99.90;;;;;;5078961;28;20405;-85
2021/07/28 23:09:14;;;;;;;25.92;21.08;;;25.00;99.90;;;;;;5097211;28;20504;-85
2021/07/28 23:11:40;;;;;;;23.88;20.38;;;25.00;99.90;;;;;;5078483;28;20021;-85
2021/07/28 23:14:06;;;;;;;24.15;20.20;;;25.00;99.90;;;;;;5078656;28;20016;-84
2021/07/28 23:16:32;;;;;;;23.70;20.08;;;25.00;99.90;;;;;;5078600;28;20024;-84
2021/07/28 23:18:58;;;;;;;23.92;20.13;;;25.00;99.90;;;;;;5078451;28;20020;-85
2021/07/28 23:21:24;;;;;;;21.58;19.33;;;25.00;99.90;;;;;;5078435;28;20028;-85
2021/07/28 23:23:50;;;;;;;25.05;19.95;;;25.00;99.90;;;;;;5096607;28;20043;-85
2021/07/28 23:26:15;;;;;;;22.92;20.08;;;24.90;99.90;;;;;;5078290;28;20440;-85
2021/07/28 23:28:42;;;;;;;22.02;19.73;;;24.90;99.90;;;;;;5096814;28;20046;-85
2021/07/28 23:31:09;;;;;;;21.50;18.90;;;24.90;99.90;;;;;;5096486;28;20028;-85
2021/07/28 23:33:37;;;;;;;20.92;18.63;;;24.90;99.90;;;;;;5078297;28;20462;-85
2021/07/28 23:36:08;;;;;;;27.95;18.95;;;24.90;99.90;;;;;;5078217;28;20032;-85
2021/07/28 23:38:34;;;;;;;20.88;18.67;;;24.90;99.90;;;;;;5096369;28;20439;-84
2021/07/28 23:41:00;;;;;;;20.33;17.98;;;24.80;99.90;;;;;;5078030;28;20055;-84
2021/07/28 23:43:27;;;;;;;20.85;18.80;;;24.80;99.90;;;;;;5096225;28;20097;-84
2021/07/28 23:45:59;;;;;;;21.98;19.55;;;24.80;99.90;;;;;;5096084;28;20020;-85
2021/07/28 23:48:25;;;;;;;22.65;18.65;;;24.80;99.90;;;;;;5078026;28;20390;-85
2021/07/28 23:50:51;;;;;;;20.30;18.20;;;24.80;99.90;;;;;;5096085;28;20031;-85
2021/07/28 23:53:17;;;;;;;21.98;18.58;;;24.80;99.90;;;;;;5077925;28;20020;-85
2021/07/28 23:55:43;;;;;;;22.75;17.85;;;24.80;99.90;;;;;;5077822;28;20032;-85
2021/07/28 23:58:09;;;;;;;21.70;18.40;;;24.80;99.90;;;;;;5077775;28;20020;-85
